This is the latest recevied weather packets stored in our database for station/object R2AKT-13. If no packets are shown the sender has not sent any weather packets the latest 10 day(s).
| Time | Temp. | Humidity | Pressure | Rain* | Wind** | Luminosity | Snow |
|---|---|---|---|---|---|---|---|
| 1777886924 | 22.22° C | 33% | 986 hPa | - | 0.89 m/s, 129° | - | - |
| 1777886344 | 22.22° C | 34% | 986.1 hPa | - | 0.45 m/s, 143° | - | - |
| 1777885859 | 21.11° C | 34% | 986.2 hPa | - | 0.89 m/s, 262° | - | - |
| 1777885300 | 21.67° C | 34% | 986.2 hPa | - | 0.89 m/s, 259° | - | - |
| 1777884799 | 22.22° C | 32% | 986.1 hPa | - | 1.34 m/s, 214° | - | - |
| 1777884279 | 22.22° C | 33% | 986.2 hPa | - | 0.89 m/s, 206° | - | - |
| 1777883694 | 21.11° C | 35% | 986.3 hPa | - | 0.45 m/s, 268° | - | - |
| 1777883179 | 22.22° C | 34% | 986.3 hPa | - | 0.89 m/s, 159° | - | - |
| 1777882699 | 21.67° C | 34% | 986.4 hPa | - | 0.89 m/s, 200° | - | - |
| 1777882119 | 21.11° C | 37% | 986.4 hPa | - | 0 m/s | - | - |
| 1777881634 | 21.67° C | 36% | 986.5 hPa | - | 0 m/s | - | - |
| 1777881099 | 21.11° C | 39% | 986.5 hPa | - | 0 m/s | - | - |
| 1777880519 | 19.44° C | 40% | 986.5 hPa | - | 0 m/s | - | - |
| 1777880024 | 19.44° C | 43% | 986.4 hPa | - | 0 m/s | - | - |
| 1777879514 | 17.78° C | 45% | 986.5 hPa | - | 0.45 m/s, 295° | - | - |
| 1777879002 | 18.89° C | 44% | 986.5 hPa | - | 0 m/s | - | - |
| 1777878449 | 18.33° C | 44% | 986.5 hPa | - | 0.45 m/s, 237° | - | - |
| 1777877929 | 17.78° C | 47% | 986.5 hPa | - | 0 m/s | - | - |
| 1777877394 | 17.22° C | 47% | 986.5 hPa | - | 0.45 m/s, 310° | - | - |
| 1777876814 | 16.67° C | 48% | 986.4 hPa | - | 0.45 m/s, 267° | - | - |
| 1777876234 | 16.67° C | 48% | 986.5 hPa | - | 0.89 m/s, 339° | - | - |
| 1777875719 | 17.22° C | 49% | 986.4 hPa | - | 0 m/s | - | - |
| 1777875234 | 17.78° C | 44% | 986.4 hPa | - | 0.45 m/s, 126° | - | - |
| 1777874669 | 17.78° C | 43% | 986.3 hPa | - | 0.45 m/s, 104° | - | - |
| 1777874119 | 17.78° C | 43% | 986.1 hPa | - | 0.45 m/s, 177° | - | - |
* Rain since midnight (hover to see other rain measurements)
** Current wind speed in m/s (hover to see current wind gust speed)